createdAt,value
2019-02-14T00:00:40.921Z,0
2019-02-14T00:01:41.486Z,0
2019-02-14T00:02:42.059Z,0
2019-02-14T00:03:42.631Z,0
2019-02-14T00:04:43.209Z,0
2019-02-14T00:05:43.774Z,0
2019-02-14T00:06:44.340Z,0
2019-02-14T00:07:44.906Z,0
2019-02-14T00:08:45.484Z,0
2019-02-14T00:09:46.049Z,0
2019-02-14T00:10:46.617Z,0
2019-02-14T00:11:47.181Z,0
2019-02-14T00:12:47.749Z,0
2019-02-14T00:13:48.315Z,0
2019-02-14T00:14:48.894Z,0
2019-02-14T00:15:49.461Z,0
2019-02-14T00:16:50.027Z,0
2019-02-14T00:17:50.595Z,0
2019-02-14T00:18:51.161Z,0
2019-02-14T00:19:51.729Z,0
2019-02-14T00:20:52.292Z,0
2019-02-14T00:21:52.859Z,0
2019-02-14T00:22:53.426Z,0
2019-02-14T00:23:53.992Z,0
2019-02-14T00:24:54.557Z,0
2019-02-14T00:25:55.135Z,0
2019-02-14T00:26:55.710Z,0
2019-02-14T00:27:56.276Z,0
2019-02-14T00:28:56.842Z,0
2019-02-14T00:29:57.408Z,0
2019-02-14T00:30:57.972Z,0
2019-02-14T00:31:58.539Z,0
2019-02-14T00:32:59.104Z,0
2019-02-14T00:33:59.732Z,0
2019-02-14T00:35:00.309Z,0
2019-02-14T00:36:00.876Z,0
2019-02-14T00:37:01.443Z,0
2019-02-14T00:38:02.009Z,0
2019-02-14T00:39:02.576Z,0
2019-02-14T00:40:03.142Z,0
2019-02-14T00:41:03.709Z,0
2019-02-14T00:42:04.273Z,0
2019-02-14T00:43:04.839Z,0
2019-02-14T00:44:05.407Z,0
2019-02-14T00:45:05.982Z,0
2019-02-14T00:46:06.549Z,0
2019-02-14T00:47:07.115Z,0
2019-02-14T00:48:07.683Z,0
2019-02-14T00:49:08.250Z,0
2019-02-14T00:50:08.815Z,0
2019-02-14T00:51:09.385Z,0
2019-02-14T00:52:09.947Z,0
2019-02-14T00:53:10.513Z,0
2019-02-14T00:54:11.080Z,0
2019-02-14T00:55:11.657Z,0
2019-02-14T00:56:12.226Z,0
2019-02-14T00:57:12.790Z,0
2019-02-14T00:58:13.356Z,0
2019-02-14T00:59:13.923Z,0
2019-02-14T01:00:14.489Z,0
2019-02-14T01:01:15.066Z,0
2019-02-14T01:02:15.629Z,0
2019-02-14T01:03:16.198Z,0
2019-02-14T01:04:16.759Z,0
2019-02-14T01:05:17.325Z,0
2019-02-14T01:06:17.890Z,0
2019-02-14T01:07:18.455Z,0
2019-02-14T01:08:19.021Z,0
2019-02-14T01:09:19.585Z,0
2019-02-14T01:10:20.151Z,0
2019-02-14T01:11:20.716Z,0
2019-02-14T01:12:21.280Z,0
2019-02-14T01:13:21.846Z,0
2019-02-14T01:14:22.561Z,0
2019-02-14T01:15:23.129Z,0
2019-02-14T01:16:23.690Z,0
2019-02-14T01:17:24.257Z,0
2019-02-14T01:18:24.820Z,0
2019-02-14T01:19:25.486Z,0
2019-02-14T01:20:26.051Z,0
2019-02-14T01:21:26.618Z,0
2019-02-14T01:22:27.183Z,0
2019-02-14T01:23:27.750Z,0
2019-02-14T01:24:28.315Z,0
2019-02-14T01:25:28.881Z,0
2019-02-14T01:26:29.446Z,0
2019-02-14T01:27:30.011Z,0
2019-02-14T01:28:30.576Z,0
2019-02-14T01:29:31.142Z,0
2019-02-14T01:30:31.707Z,0
2019-02-14T01:31:32.273Z,0
2019-02-14T01:32:32.838Z,0
2019-02-14T01:33:33.403Z,0
2019-02-14T01:34:33.971Z,0
2019-02-14T01:35:41.847Z,0
2019-02-14T01:36:36.092Z,0
2019-02-14T01:37:36.667Z,0
2019-02-14T01:38:37.233Z,0
2019-02-14T01:39:37.799Z,0
2019-02-14T01:40:38.362Z,0
2019-02-14T01:41:38.928Z,0
2019-02-14T01:42:39.493Z,0
2019-02-14T01:43:40.057Z,0
2019-02-14T01:44:40.622Z,0
2019-02-14T01:45:41.187Z,0
2019-02-14T01:46:41.752Z,0
2019-02-14T01:47:42.317Z,0
2019-02-14T01:48:42.925Z,0
2019-02-14T01:49:43.446Z,0
2019-02-14T01:50:44.012Z,0
2019-02-14T01:51:44.589Z,0
2019-02-14T01:52:45.159Z,0
2019-02-14T01:53:45.722Z,0
2019-02-14T01:54:46.297Z,0
2019-02-14T01:55:46.862Z,0
2019-02-14T01:56:47.428Z,0
2019-02-14T01:57:47.992Z,0
2019-02-14T01:58:48.560Z,0
2019-02-14T01:59:49.135Z,0
2019-02-14T02:00:49.702Z,0
2019-02-14T02:01:50.280Z,0
2019-02-14T02:02:50.844Z,0
2019-02-14T02:03:51.411Z,0
2019-02-14T02:04:51.977Z,0
2019-02-14T02:05:52.545Z,0
2019-02-14T02:06:53.108Z,0
2019-02-14T02:07:53.676Z,0
2019-02-14T02:08:54.242Z,0
2019-02-14T02:09:54.818Z,0
2019-02-14T02:10:55.384Z,0
2019-02-14T02:11:55.954Z,0
2019-02-14T02:12:56.517Z,0
2019-02-14T02:13:57.083Z,0
2019-02-14T02:14:57.751Z,0
2019-02-14T02:15:58.316Z,0
2019-02-14T02:16:58.881Z,0
2019-02-14T02:17:59.449Z,0
2019-02-14T02:19:00.022Z,0
2019-02-14T02:20:00.593Z,0
2019-02-14T02:21:01.155Z,0
2019-02-14T02:22:01.720Z,0
2019-02-14T02:23:02.285Z,0
2019-02-14T02:24:02.850Z,0
2019-02-14T02:25:03.418Z,0
2019-02-14T02:26:03.980Z,0
2019-02-14T02:27:04.544Z,0
2019-02-14T02:28:05.111Z,0
2019-02-14T02:29:05.675Z,0
2019-02-14T02:30:06.242Z,0
2019-02-14T02:31:06.817Z,0
2019-02-14T02:32:07.395Z,0
2019-02-14T02:33:07.959Z,0
2019-02-14T02:34:08.524Z,0
2019-02-14T02:35:09.198Z,0
2019-02-14T02:36:09.765Z,0
2019-02-14T02:37:10.344Z,0
2019-02-14T02:38:10.906Z,0
2019-02-14T02:39:11.471Z,0
2019-02-14T02:40:12.035Z,0
2019-02-14T02:41:12.601Z,0
2019-02-14T02:42:13.207Z,0
2019-02-14T02:43:13.730Z,0
2019-02-14T02:44:14.295Z,0
2019-02-14T02:45:14.859Z,0
2019-02-14T02:46:15.425Z,0
2019-02-14T02:47:16.004Z,0
2019-02-14T02:48:16.569Z,0
2019-02-14T02:49:17.135Z,0
2019-02-14T02:50:17.701Z,0
2019-02-14T02:51:18.265Z,0
2019-02-14T02:52:18.833Z,0
2019-02-14T02:53:19.401Z,0
2019-02-14T02:54:19.963Z,0
2019-02-14T02:55:20.528Z,0
2019-02-14T02:56:21.092Z,0
2019-02-14T02:57:21.656Z,0
2019-02-14T02:58:22.224Z,0
2019-02-14T02:59:22.787Z,0
2019-02-14T03:00:23.359Z,0
2019-02-14T03:01:23.917Z,0
2019-02-14T03:02:24.482Z,0
2019-02-14T03:03:25.059Z,0
2019-02-14T03:04:25.636Z,0
2019-02-14T03:05:26.199Z,0
2019-02-14T03:06:26.767Z,0
2019-02-14T03:07:27.329Z,0
2019-02-14T03:08:27.894Z,0
2019-02-14T03:09:28.462Z,0
2019-02-14T03:10:29.026Z,0
2019-02-14T03:11:29.591Z,0
2019-02-14T03:12:30.153Z,0
2019-02-14T03:13:30.719Z,0
2019-02-14T03:14:31.284Z,0
2019-02-14T03:15:31.864Z,0
2019-02-14T03:16:32.429Z,0
2019-02-14T03:17:32.991Z,0
2019-02-14T03:18:33.557Z,0
2019-02-14T03:19:34.123Z,0
2019-02-14T03:20:34.688Z,0
2019-02-14T03:21:35.252Z,0
2019-02-14T03:22:35.818Z,0
2019-02-14T03:23:36.385Z,0
2019-02-14T03:24:36.950Z,0
2019-02-14T03:25:37.525Z,0
2019-02-14T03:26:38.093Z,0
2019-02-14T03:27:38.657Z,0
2019-02-14T03:28:39.222Z,0
2019-02-14T03:29:39.789Z,0
2019-02-14T03:30:40.357Z,0
2019-02-14T03:31:40.922Z,0
2019-02-14T03:32:41.489Z,0
2019-02-14T03:33:42.052Z,0
2019-02-14T03:34:42.618Z,0
2019-02-14T03:35:43.182Z,0
2019-02-14T03:36:43.746Z,0
2019-02-14T03:37:44.312Z,0
2019-02-14T03:38:44.876Z,0
2019-02-14T03:39:45.441Z,0
2019-02-14T03:40:46.005Z,0
2019-02-14T03:41:46.581Z,0
2019-02-14T03:42:47.158Z,0
2019-02-14T03:43:47.723Z,0
2019-02-14T03:44:48.286Z,0
2019-02-14T03:45:48.853Z,0
2019-02-14T03:46:49.417Z,0
2019-02-14T03:47:49.980Z,0
2019-02-14T03:48:50.547Z,0
2019-02-14T03:49:51.110Z,0
2019-02-14T03:50:51.725Z,0
2019-02-14T03:51:52.292Z,0
2019-02-14T03:52:52.858Z,0
2019-02-14T03:53:53.425Z,0
2019-02-14T03:54:53.989Z,0
2019-02-14T03:55:54.554Z,0
2019-02-14T03:56:55.118Z,0
2019-02-14T03:57:55.683Z,0
2019-02-14T03:58:56.248Z,0
2019-02-14T03:59:56.814Z,0
2019-02-14T04:00:57.383Z,0
2019-02-14T04:01:57.944Z,0
2019-02-14T04:02:58.512Z,0
2019-02-14T04:03:59.077Z,0
2019-02-14T04:04:59.651Z,0
2019-02-14T04:06:00.226Z,0
2019-02-14T04:07:00.792Z,0
2019-02-14T04:08:01.357Z,0
2019-02-14T04:09:01.922Z,0
2019-02-14T04:10:02.488Z,0
2019-02-14T04:11:03.050Z,0
2019-02-14T04:12:03.614Z,0
2019-02-14T04:13:04.178Z,0
2019-02-14T04:14:04.741Z,0
2019-02-14T04:15:05.311Z,0
2019-02-14T04:16:05.870Z,0
2019-02-14T04:17:06.434Z,0
2019-02-14T04:18:06.999Z,0
2019-02-14T04:19:07.564Z,0
2019-02-14T04:20:08.128Z,0
2019-02-14T04:21:08.693Z,0
2019-02-14T04:22:09.258Z,0
2019-02-14T04:23:09.821Z,0
2019-02-14T04:24:10.386Z,0
2019-02-14T04:25:10.949Z,0
2019-02-14T04:26:11.514Z,0
2019-02-14T04:27:12.090Z,0
2019-02-14T04:28:12.656Z,0
2019-02-14T04:29:13.224Z,0
2019-02-14T04:30:13.788Z,0
2019-02-14T04:31:14.352Z,0
2019-02-14T04:32:14.926Z,0
2019-02-14T04:33:15.491Z,0
2019-02-14T04:34:16.054Z,0
2019-02-14T04:35:16.618Z,0
2019-02-14T04:36:17.333Z,0
2019-02-14T04:37:17.898Z,0
2019-02-14T04:38:18.462Z,0
2019-02-14T04:39:19.027Z,0
2019-02-14T04:40:19.590Z,0
2019-02-14T04:41:20.155Z,0
2019-02-14T04:42:20.722Z,0
2019-02-14T04:43:21.287Z,0
2019-02-14T04:44:21.849Z,0
2019-02-14T04:45:22.413Z,0
2019-02-14T04:46:22.978Z,0
2019-02-14T04:47:23.544Z,0
2019-02-14T04:48:24.110Z,0
2019-02-14T04:49:24.667Z,0
2019-02-14T04:50:25.232Z,0
2019-02-14T04:51:25.796Z,0
2019-02-14T04:52:26.361Z,0
2019-02-14T04:53:26.925Z,0
2019-02-14T04:54:27.490Z,0
2019-02-14T04:55:28.054Z,0
2019-02-14T04:56:28.619Z,0
2019-02-14T04:57:29.182Z,0
2019-02-14T04:58:29.745Z,0
2019-02-14T04:59:30.310Z,0
2019-02-14T05:00:30.873Z,0
2019-02-14T05:01:31.436Z,0
2019-02-14T05:02:32.000Z,0
2019-02-14T05:03:32.566Z,0
2019-02-14T05:04:33.130Z,0
2019-02-14T05:05:33.695Z,0
2019-02-14T05:06:34.259Z,0
2019-02-14T05:07:34.823Z,0
2019-02-14T05:08:35.389Z,0
2019-02-14T05:09:35.953Z,0
2019-02-14T05:10:36.516Z,0
2019-02-14T05:11:37.231Z,0
2019-02-14T05:12:37.807Z,0
2019-02-14T05:13:38.373Z,0
2019-02-14T05:14:38.937Z,0
2019-02-14T05:15:39.504Z,0
2019-02-14T05:16:40.318Z,0
2019-02-14T05:17:40.885Z,0
2019-02-14T05:18:41.448Z,0
2019-02-14T05:19:42.014Z,0
2019-02-14T05:20:42.579Z,0
2019-02-14T05:21:43.145Z,0
2019-02-14T05:22:43.710Z,0
2019-02-14T05:23:44.275Z,0
2019-02-14T05:24:44.838Z,0
2019-02-14T05:25:45.404Z,0
2019-02-14T05:26:45.968Z,0
2019-02-14T05:27:46.534Z,0
2019-02-14T05:28:47.098Z,0
2019-02-14T05:29:47.667Z,0
2019-02-14T05:30:48.228Z,0
2019-02-14T05:31:48.791Z,0
2019-02-14T05:32:49.356Z,0
2019-02-14T05:33:49.920Z,0
2019-02-14T05:34:50.495Z,0
2019-02-14T05:35:51.060Z,0
2019-02-14T05:36:54.658Z,0
2019-02-14T05:37:53.183Z,0
2019-02-14T05:38:53.747Z,0
2019-02-14T05:39:54.310Z,0
2019-02-14T05:40:54.875Z,0
2019-02-14T05:41:55.438Z,0
2019-02-14T05:42:56.017Z,0
2019-02-14T05:43:56.592Z,0
2019-02-14T05:44:57.156Z,0
2019-02-14T05:45:57.733Z,0
2019-02-14T05:46:58.298Z,0
2019-02-14T05:47:58.862Z,0
2019-02-14T05:48:59.428Z,0
2019-02-14T05:49:59.991Z,0
2019-02-14T05:51:00.566Z,0
2019-02-14T05:52:01.132Z,0
2019-02-14T05:53:01.697Z,0
2019-02-14T05:54:02.265Z,0
2019-02-14T05:55:02.829Z,0
2019-02-14T05:56:03.393Z,0
2019-02-14T05:57:04.057Z,0
2019-02-14T05:58:04.623Z,0
2019-02-14T05:59:05.188Z,0
2019-02-14T06:00:05.756Z,0
2019-02-14T06:01:06.321Z,0
2019-02-14T06:02:06.895Z,0
2019-02-14T06:03:07.460Z,0
2019-02-14T06:04:08.024Z,0
2019-02-14T06:05:08.591Z,0
2019-02-14T06:06:09.160Z,0
2019-02-14T06:07:09.716Z,0
2019-02-14T06:08:10.280Z,0
2019-02-14T06:09:10.844Z,0
2019-02-14T06:10:11.407Z,0
2019-02-14T06:11:11.972Z,0
2019-02-14T06:12:12.536Z,0
2019-02-14T06:13:13.101Z,0
2019-02-14T06:14:13.663Z,0
2019-02-14T06:15:14.228Z,0
2019-02-14T06:16:14.791Z,0
2019-02-14T06:17:15.354Z,0
2019-02-14T06:18:15.919Z,0
2019-02-14T06:19:16.498Z,0
2019-02-14T06:20:17.070Z,0
2019-02-14T06:21:17.634Z,0
2019-02-14T06:22:18.198Z,0
2019-02-14T06:23:18.761Z,0
2019-02-14T06:24:19.324Z,0
2019-02-14T06:25:19.889Z,0
2019-02-14T06:26:20.453Z,0
2019-02-14T06:27:21.027Z,0
2019-02-14T06:28:21.591Z,0
2019-02-14T06:29:22.167Z,0
2019-02-14T06:30:22.731Z,0
2019-02-14T06:31:23.295Z,4
2019-02-14T06:32:23.858Z,0
2019-02-14T06:33:24.423Z,0
2019-02-14T06:34:24.985Z,4
2019-02-14T06:35:25.550Z,0
2019-02-14T06:36:26.126Z,4
2019-02-14T06:37:26.691Z,0
2019-02-14T06:38:27.258Z,4
2019-02-14T06:39:27.822Z,4
2019-02-14T06:40:28.386Z,4
2019-02-14T06:41:28.949Z,4
2019-02-14T06:42:29.515Z,4
2019-02-14T06:43:30.079Z,8
2019-02-14T06:44:30.645Z,8
2019-02-14T06:45:31.213Z,8
2019-02-14T06:46:31.774Z,8
2019-02-14T06:47:32.339Z,12
2019-02-14T06:48:32.906Z,12
2019-02-14T06:49:33.469Z,12
2019-02-14T06:50:34.957Z,16
2019-02-14T06:51:35.569Z,16
2019-02-14T06:52:36.136Z,20
2019-02-14T06:53:36.701Z,20
2019-02-14T06:54:37.267Z,24
2019-02-14T06:55:37.838Z,24
2019-02-14T06:56:38.403Z,24
2019-02-14T06:57:38.968Z,28
2019-02-14T06:58:39.535Z,28
2019-02-14T06:59:40.099Z,32
2019-02-14T07:00:40.665Z,36
2019-02-14T07:01:41.232Z,32
2019-02-14T07:02:41.797Z,36
2019-02-14T07:03:42.363Z,40
2019-02-14T07:04:42.931Z,40
2019-02-14T07:05:43.495Z,44
2019-02-14T07:06:44.059Z,48
2019-02-14T07:07:44.631Z,48
2019-02-14T07:08:45.203Z,52
2019-02-14T07:09:45.780Z,52
2019-02-14T07:10:46.347Z,56
2019-02-14T07:11:46.914Z,60
2019-02-14T07:12:47.483Z,60
2019-02-14T07:13:48.047Z,64
2019-02-14T07:14:48.611Z,68
2019-02-14T07:15:49.178Z,72
2019-02-14T07:16:49.747Z,72
2019-02-14T07:17:50.308Z,80
2019-02-14T07:18:50.875Z,84
2019-02-14T07:19:51.437Z,84
2019-02-14T07:20:52.001Z,88
2019-02-14T07:21:52.565Z,92
2019-02-14T07:22:53.130Z,92
2019-02-14T07:23:53.695Z,96
2019-02-14T07:24:54.259Z,96
2019-02-14T07:25:54.828Z,100
2019-02-14T07:26:55.402Z,104
2019-02-14T07:27:55.968Z,112
2019-02-14T07:28:56.535Z,112
2019-02-14T07:29:57.104Z,116
2019-02-14T07:30:57.667Z,116
2019-02-14T07:31:58.233Z,116
2019-02-14T07:32:58.804Z,116
2019-02-14T07:33:59.367Z,120
2019-02-14T07:34:59.933Z,120
2019-02-14T07:36:00.500Z,128
2019-02-14T07:37:01.066Z,128
2019-02-14T07:38:01.633Z,128
2019-02-14T07:39:02.205Z,132
2019-02-14T07:40:02.778Z,128
2019-02-14T07:41:03.347Z,132
2019-02-14T07:42:03.910Z,132
2019-02-14T07:43:04.475Z,140
2019-02-14T07:44:05.042Z,140
2019-02-14T07:45:05.608Z,144
2019-02-14T07:46:06.176Z,148
2019-02-14T07:47:06.742Z,148
2019-02-14T07:48:07.313Z,148
2019-02-14T07:49:07.881Z,148
2019-02-14T07:50:08.455Z,156
2019-02-14T07:51:09.022Z,152
2019-02-14T07:52:09.588Z,156
2019-02-14T07:53:10.156Z,164
2019-02-14T07:54:10.722Z,164
2019-02-14T07:55:11.362Z,168
2019-02-14T07:56:11.921Z,176
2019-02-14T07:57:12.498Z,180
2019-02-14T07:58:13.065Z,180
2019-02-14T07:59:13.631Z,184
2019-02-14T08:00:14.212Z,184
2019-02-14T08:01:14.777Z,188
2019-02-14T08:02:15.344Z,184
2019-02-14T08:03:15.910Z,184
2019-02-14T08:04:16.476Z,184
2019-02-14T08:05:17.045Z,188
2019-02-14T08:06:17.611Z,188
2019-02-14T08:07:18.178Z,188
2019-02-14T08:08:18.747Z,188
2019-02-14T08:09:19.313Z,196
2019-02-14T08:10:19.879Z,200
2019-02-14T08:11:20.444Z,200
2019-02-14T08:12:21.011Z,192
2019-02-14T08:13:21.576Z,192
2019-02-14T08:14:22.143Z,196
2019-02-14T08:15:22.709Z,192
2019-02-14T08:16:23.276Z,192
2019-02-14T08:17:23.845Z,196
2019-02-14T08:18:24.413Z,196
2019-02-14T08:19:24.980Z,196
2019-02-14T08:20:25.546Z,200
2019-02-14T08:21:26.111Z,200
2019-02-14T08:22:26.680Z,204
2019-02-14T08:23:27.244Z,208
2019-02-14T08:24:27.812Z,212
2019-02-14T08:25:28.378Z,216
2019-02-14T08:26:28.950Z,220
2019-02-14T08:27:29.515Z,232
2019-02-14T08:28:30.097Z,228
2019-02-14T08:29:30.667Z,224
2019-02-14T08:30:31.241Z,228
2019-02-14T08:31:31.820Z,232
2019-02-14T08:32:32.388Z,240
2019-02-14T08:33:32.954Z,236
2019-02-14T08:34:33.528Z,232
2019-02-14T08:35:34.091Z,236
2019-02-14T08:36:34.660Z,236
2019-02-14T08:37:35.231Z,240
2019-02-14T08:38:35.794Z,240
2019-02-14T08:39:36.373Z,240
2019-02-14T08:40:36.941Z,240
2019-02-14T08:41:37.510Z,240
2019-02-14T08:42:38.089Z,244
2019-02-14T08:43:38.656Z,248
2019-02-14T08:44:39.236Z,264
2019-02-14T08:45:39.806Z,296
2019-02-14T08:46:40.388Z,292
2019-02-14T08:47:40.956Z,280
2019-02-14T08:48:41.524Z,292
2019-02-14T08:49:42.092Z,292
2019-02-14T08:50:42.658Z,300
2019-02-14T08:51:43.227Z,300
2019-02-14T08:52:43.795Z,292
2019-02-14T08:53:44.365Z,292
2019-02-14T08:54:44.946Z,296
2019-02-14T08:55:45.512Z,292
2019-02-14T08:56:46.081Z,288
2019-02-14T08:57:46.649Z,288
2019-02-14T08:58:47.215Z,280
2019-02-14T08:59:47.784Z,272
2019-02-14T09:00:48.352Z,280
2019-02-14T09:01:48.922Z,272
2019-02-14T09:02:49.489Z,272
2019-02-14T09:03:50.059Z,244
2019-02-14T09:04:50.630Z,244
2019-02-14T09:05:51.208Z,244
2019-02-14T09:06:51.777Z,284
2019-02-14T09:07:54.649Z,272
2019-02-14T09:08:53.225Z,296
2019-02-14T09:09:53.750Z,320
2019-02-14T09:10:54.324Z,316
2019-02-14T09:11:54.898Z,304
2019-02-14T09:12:55.466Z,320
2019-02-14T09:13:56.033Z,324
2019-02-14T09:14:56.599Z,316
2019-02-14T09:15:57.170Z,300
2019-02-14T09:16:57.740Z,296
2019-02-14T09:17:58.311Z,316
2019-02-14T09:18:58.881Z,308
2019-02-14T09:19:59.446Z,312
2019-02-14T09:21:00.014Z,328
2019-02-14T09:22:00.583Z,296
2019-02-14T09:23:01.154Z,288
2019-02-14T09:24:01.732Z,280
2019-02-14T09:25:02.312Z,296
2019-02-14T09:26:02.894Z,344
2019-02-14T09:27:03.463Z,344
2019-02-14T09:28:04.031Z,344
2019-02-14T09:29:04.600Z,344
2019-02-14T09:30:05.172Z,344
2019-02-14T09:31:05.741Z,344
2019-02-14T09:32:06.314Z,320
2019-02-14T09:33:06.880Z,340
2019-02-14T09:34:07.461Z,308
2019-02-14T09:35:08.031Z,324
2019-02-14T09:36:08.613Z,320
2019-02-14T09:37:09.179Z,344
2019-02-14T09:38:09.749Z,284
2019-02-14T09:39:10.316Z,312
2019-02-14T09:40:10.885Z,332
2019-02-14T09:41:11.454Z,328
2019-02-14T09:42:12.035Z,352
2019-02-14T09:43:12.617Z,356
2019-02-14T09:44:13.187Z,356
2019-02-14T09:45:13.830Z,356
2019-02-14T09:46:14.327Z,356
2019-02-14T09:47:14.898Z,360
2019-02-14T09:48:15.473Z,364
2019-02-14T09:49:16.040Z,368
2019-02-14T09:50:16.623Z,368
2019-02-14T09:51:17.202Z,372
2019-02-14T09:52:17.781Z,368
2019-02-14T09:53:18.345Z,372
2019-02-14T09:54:18.913Z,376
2019-02-14T09:55:19.486Z,380
2019-02-14T09:56:20.063Z,380
2019-02-14T09:57:20.626Z,380
2019-02-14T09:58:22.594Z,380
2019-02-14T09:59:22.770Z,380
2019-02-14T10:00:23.344Z,364
2019-02-14T10:01:23.909Z,364
2019-02-14T10:02:25.752Z,328
2019-02-14T10:03:25.057Z,368
2019-02-14T10:04:25.628Z,396
2019-02-14T10:05:26.210Z,384
2019-02-14T10:06:30.591Z,380
2019-02-14T10:07:28.334Z,364
2019-02-14T10:08:28.907Z,344
2019-02-14T10:09:29.484Z,352
2019-02-14T10:10:30.056Z,352
2019-02-14T10:11:30.650Z,360
2019-02-14T10:12:31.198Z,388
2019-02-14T10:13:31.769Z,368
2019-02-14T10:14:32.440Z,392
2019-02-14T10:15:33.011Z,432
2019-02-14T10:16:33.585Z,440
2019-02-14T10:17:34.153Z,440
2019-02-14T10:18:34.736Z,400
2019-02-14T10:19:35.308Z,352
2019-02-14T10:20:35.877Z,356
2019-02-14T10:21:36.448Z,348
2019-02-14T10:22:37.020Z,348
2019-02-14T10:23:37.595Z,344
2019-02-14T10:24:38.176Z,344
2019-02-14T10:25:38.745Z,376
2019-02-14T10:26:39.326Z,372
2019-02-14T10:27:39.898Z,384
2019-02-14T10:28:40.472Z,380
2019-02-14T10:29:41.039Z,388
2019-02-14T10:30:41.625Z,404
2019-02-14T10:31:42.194Z,432
2019-02-14T10:32:42.765Z,436
2019-02-14T10:33:43.337Z,404
2019-02-14T10:34:43.920Z,364
2019-02-14T10:35:44.505Z,328
2019-02-14T10:36:45.086Z,336
2019-02-14T10:37:45.659Z,324
2019-02-14T10:38:46.239Z,316
2019-02-14T10:39:46.809Z,324
2019-02-14T10:40:47.383Z,316
2019-02-14T10:41:47.955Z,316
2019-02-14T10:42:48.526Z,332
2019-02-14T10:43:49.238Z,404
2019-02-14T10:44:49.728Z,392
2019-02-14T10:45:50.298Z,396
2019-02-14T10:46:50.869Z,424
2019-02-14T10:47:51.439Z,424
2019-02-14T10:48:52.022Z,432
2019-02-14T10:49:52.595Z,432
2019-02-14T10:50:53.167Z,436
2019-02-14T10:51:53.736Z,436
2019-02-14T10:52:54.308Z,436
2019-02-14T10:53:54.876Z,436
2019-02-14T10:54:55.448Z,432
2019-02-14T10:55:56.018Z,428
2019-02-14T10:56:56.588Z,432
2019-02-14T10:57:57.164Z,440
2019-02-14T10:58:59.095Z,436
2019-02-14T10:59:59.298Z,440
2019-02-14T11:00:59.871Z,440
2019-02-14T11:02:00.442Z,424
2019-02-14T11:03:01.013Z,396
2019-02-14T11:04:01.597Z,436
2019-02-14T11:05:02.166Z,432
2019-02-14T11:06:02.738Z,436
2019-02-14T11:07:03.322Z,432
2019-02-14T11:08:03.891Z,432
2019-02-14T11:09:04.463Z,428
2019-02-14T11:10:05.033Z,424
2019-02-14T11:11:05.606Z,424
2019-02-14T11:12:06.179Z,416
2019-02-14T11:13:06.760Z,408
2019-02-14T11:14:07.332Z,412
2019-02-14T11:15:09.102Z,412
2019-02-14T11:16:09.851Z,412
2019-02-14T11:17:10.433Z,412
2019-02-14T11:18:11.003Z,412
2019-02-14T11:19:11.576Z,412
2019-02-14T11:20:12.143Z,412
2019-02-14T11:21:12.715Z,412
2019-02-14T11:22:13.287Z,408
2019-02-14T11:23:13.858Z,408
2019-02-14T11:24:14.441Z,408
2019-02-14T11:25:15.011Z,408
2019-02-14T11:26:15.595Z,404
2019-02-14T11:27:16.170Z,404
2019-02-14T11:28:16.738Z,404
2019-02-14T11:29:17.309Z,408
2019-02-14T11:30:18.030Z,408
2019-02-14T11:31:18.602Z,404
2019-02-14T11:32:19.187Z,376
2019-02-14T11:33:19.747Z,396
2019-02-14T11:34:20.318Z,412
2019-02-14T11:35:20.889Z,396
2019-02-14T11:36:21.460Z,376
2019-02-14T11:37:22.032Z,388
2019-02-14T11:38:22.605Z,404
2019-02-14T11:39:23.175Z,408
2019-02-14T11:40:23.748Z,404
2019-02-14T11:41:24.319Z,408
2019-02-14T11:42:24.891Z,404
2019-02-14T11:43:25.464Z,400
2019-02-14T11:44:26.034Z,396
2019-02-14T11:45:26.606Z,396
2019-02-14T11:46:27.176Z,400
2019-02-14T11:47:27.748Z,400
2019-02-14T11:48:28.369Z,404
2019-02-14T11:49:28.892Z,400
2019-02-14T11:50:29.466Z,388
2019-02-14T11:51:30.038Z,396
2019-02-14T11:52:30.610Z,404
2019-02-14T11:53:31.182Z,408
2019-02-14T11:54:31.764Z,408
2019-02-14T11:55:32.337Z,404
2019-02-14T11:56:32.908Z,396
2019-02-14T11:57:33.479Z,376
2019-02-14T11:58:34.053Z,380
2019-02-14T11:59:34.626Z,400
2019-02-14T12:00:35.201Z,404
2019-02-14T12:01:35.783Z,408
2019-02-14T12:02:37.859Z,412
2019-02-14T12:03:37.934Z,372
2019-02-14T12:04:38.528Z,352
2019-02-14T12:05:39.079Z,368
2019-02-14T12:06:39.723Z,380
2019-02-14T12:07:40.227Z,360
2019-02-14T12:08:52.958Z,356
2019-02-14T12:09:42.365Z,372
2019-02-14T12:10:42.954Z,360
2019-02-14T12:11:43.523Z,380
2019-02-14T12:12:44.105Z,420
2019-02-14T12:13:44.689Z,420
2019-02-14T12:14:45.259Z,416
2019-02-14T12:15:45.832Z,416
2019-02-14T12:16:46.403Z,420
2019-02-14T12:17:46.977Z,416
2019-02-14T12:18:47.556Z,420
2019-02-14T12:19:48.946Z,416
2019-02-14T12:20:49.548Z,416
2019-02-14T12:21:50.119Z,412
2019-02-14T12:22:50.701Z,412
2019-02-14T12:23:51.262Z,408
2019-02-14T12:24:51.833Z,400
2019-02-14T12:25:52.409Z,396
2019-02-14T12:26:52.980Z,372
2019-02-14T12:27:53.552Z,316
2019-02-14T12:28:54.124Z,312
2019-02-14T12:29:54.699Z,312
2019-02-14T12:30:55.268Z,320
2019-02-14T12:31:55.841Z,352
2019-02-14T12:32:56.415Z,348
2019-02-14T12:33:56.988Z,332
2019-02-14T12:34:57.569Z,364
2019-02-14T12:35:58.142Z,368
2019-02-14T12:36:58.714Z,380
2019-02-14T12:37:59.285Z,392
2019-02-14T12:39:08.296Z,396
2019-02-14T12:40:01.421Z,400
2019-02-14T12:41:01.992Z,400
2019-02-14T12:42:02.563Z,404
2019-02-14T12:43:03.147Z,408
2019-02-14T12:44:03.719Z,404
2019-02-14T12:45:04.291Z,404
2019-02-14T12:46:04.861Z,404
2019-02-14T12:47:05.435Z,408
2019-02-14T12:48:06.021Z,404
2019-02-14T12:49:06.602Z,408
2019-02-14T12:50:07.173Z,404
2019-02-14T12:51:07.756Z,408
2019-02-14T12:52:08.328Z,408
2019-02-14T12:53:08.912Z,408
2019-02-14T12:54:09.486Z,408
2019-02-14T12:55:10.061Z,404
2019-02-14T12:56:10.641Z,404
2019-02-14T12:57:11.214Z,408
2019-02-14T12:58:11.785Z,408
2019-02-14T12:59:12.357Z,408
2019-02-14T13:00:12.928Z,408
2019-02-14T13:01:13.505Z,408
2019-02-14T13:02:14.075Z,400
2019-02-14T13:03:14.646Z,396
2019-02-14T13:04:15.221Z,400
2019-02-14T13:05:15.790Z,400
2019-02-14T13:06:16.363Z,412
2019-02-14T13:07:16.936Z,408
2019-02-14T13:08:17.509Z,404
2019-02-14T13:09:20.208Z,400
2019-02-14T13:10:19.650Z,400
2019-02-14T13:11:20.232Z,396
2019-02-14T13:12:20.804Z,400
2019-02-14T13:13:21.382Z,388
2019-02-14T13:14:21.951Z,384
2019-02-14T13:15:22.524Z,396
2019-02-14T13:16:23.109Z,408
2019-02-14T13:17:23.682Z,408
2019-02-14T13:18:24.277Z,408
2019-02-14T13:19:24.852Z,408
2019-02-14T13:20:25.434Z,404
2019-02-14T13:21:26.007Z,404
2019-02-14T13:22:26.578Z,408
2019-02-14T13:23:27.151Z,404
2019-02-14T13:24:27.723Z,408
2019-02-14T13:25:28.298Z,404
2019-02-14T13:26:28.883Z,404
2019-02-14T13:27:29.456Z,404
2019-02-14T13:28:30.030Z,400
2019-02-14T13:29:30.614Z,400
2019-02-14T13:30:31.187Z,400
2019-02-14T13:31:32.564Z,408
2019-02-14T13:32:32.339Z,412
2019-02-14T13:33:32.910Z,408
2019-02-14T13:34:33.493Z,408
2019-02-14T13:35:34.071Z,412
2019-02-14T13:36:34.642Z,408
2019-02-14T13:37:35.214Z,408
2019-02-14T13:38:35.793Z,408
2019-02-14T13:39:36.361Z,404
2019-02-14T13:40:36.935Z,400
2019-02-14T13:41:37.507Z,404
2019-02-14T13:42:38.085Z,396
2019-02-14T13:43:38.670Z,396
2019-02-14T13:44:39.255Z,392
2019-02-14T13:45:39.826Z,412
2019-02-14T13:46:40.401Z,412
2019-02-14T13:47:40.973Z,416
2019-02-14T13:48:41.561Z,416
2019-02-14T13:49:42.129Z,416
2019-02-14T13:50:42.693Z,420
2019-02-14T13:51:43.266Z,420
2019-02-14T13:52:43.857Z,412
2019-02-14T13:53:44.426Z,420
2019-02-14T13:54:45.004Z,420
2019-02-14T13:55:45.571Z,420
2019-02-14T13:56:53.916Z,420
2019-02-14T13:57:46.727Z,416
2019-02-14T13:58:47.299Z,416
2019-02-14T13:59:47.879Z,420
2019-02-14T14:00:48.445Z,424
2019-02-14T14:01:49.021Z,416
2019-02-14T14:02:49.604Z,424
2019-02-14T14:03:50.176Z,428
2019-02-14T14:04:50.761Z,428
2019-02-14T14:05:51.346Z,432
2019-02-14T14:06:51.920Z,432
2019-02-14T14:07:52.491Z,428
2019-02-14T14:08:53.086Z,428
2019-02-14T14:09:53.650Z,432
2019-02-14T14:10:54.223Z,432
2019-02-14T14:11:54.946Z,432
2019-02-14T14:12:55.522Z,424
2019-02-14T14:13:56.095Z,412
2019-02-14T14:14:56.668Z,408
2019-02-14T14:15:57.239Z,420
2019-02-14T14:16:57.823Z,428
2019-02-14T14:17:58.398Z,432
2019-02-14T14:19:06.203Z,428
2019-02-14T14:20:00.537Z,428
2019-02-14T14:21:01.110Z,424
2019-02-14T14:22:01.683Z,424
2019-02-14T14:23:02.253Z,428
2019-02-14T14:24:02.826Z,424